createdAt,value
2022-08-22T00:00:14.224Z,67.68
2022-08-22T00:02:45.979Z,63.90
2022-08-22T00:02:54.564Z,64.74
2022-08-22T00:03:12.195Z,67.02
2022-08-22T00:03:15.576Z,67.36
2022-08-22T00:05:39.670Z,67.30
2022-08-22T00:08:32.968Z,67.35
2022-08-22T00:11:15.429Z,67.32
2022-08-22T00:14:17.770Z,67.20
2022-08-22T00:17:18.683Z,67.43
2022-08-22T00:19:51.093Z,67.59
2022-08-22T00:22:30.124Z,67.62
2022-08-22T00:25:26.131Z,67.39
2022-08-22T00:28:13.940Z,67.54
2022-08-22T00:31:03.754Z,67.77
2022-08-22T00:33:54.488Z,67.87
2022-08-22T00:36:30.632Z,67.79
2022-08-22T00:39:16.367Z,67.66
2022-08-22T00:42:05.204Z,67.50
2022-08-22T00:45:03.138Z,67.68
2022-08-22T00:47:39.717Z,67.59
2022-08-22T00:50:26.287Z,67.83
2022-08-22T00:53:21.354Z,67.65
2022-08-22T00:56:03.325Z,67.65
2022-08-22T00:58:39.759Z,67.66
2022-08-22T01:01:12.190Z,67.85
2022-08-22T01:03:45.332Z,67.76
2022-08-22T01:06:21.498Z,67.54
2022-08-22T01:09:02.312Z,67.68
2022-08-22T01:11:55.081Z,67.79
2022-08-22T01:14:34.701Z,68.21
2022-08-22T01:18:01.197Z,68.04
2022-08-22T01:20:53.931Z,68.09
2022-08-22T01:23:35.925Z,67.90
2022-08-22T01:26:30.314Z,67.96
2022-08-22T01:29:35.078Z,67.60
2022-08-22T01:32:44.954Z,67.35
2022-08-22T01:35:38.090Z,67.53
2022-08-22T01:38:19.696Z,67.75
2022-08-22T01:41:37.690Z,67.89
2022-08-22T01:44:35.262Z,68.06
2022-08-22T01:47:19.278Z,67.94
2022-08-22T01:49:58.692Z,67.72
2022-08-22T01:52:43.171Z,67.93
2022-08-22T01:55:33.709Z,67.98
2022-08-22T01:58:15.540Z,67.63
2022-08-22T02:00:55.053Z,67.65
2022-08-22T02:03:51.679Z,67.46
2022-08-22T02:06:37.754Z,67.49
2022-08-22T02:09:30.220Z,67.47
2022-08-22T02:12:21.412Z,67.42
2022-08-22T02:15:23.022Z,67.71
2022-08-22T02:18:13.571Z,67.56
2022-08-22T02:21:26.682Z,67.72
2022-08-22T02:24:36.037Z,67.86
2022-08-22T02:27:24.333Z,67.90
2022-08-22T02:30:09.048Z,67.96
2022-08-22T02:32:43.813Z,68.09
2022-08-22T02:35:14.874Z,68.02
2022-08-22T02:38:03.761Z,67.92
2022-08-22T02:40:40.045Z,67.95
2022-08-22T02:43:24.046Z,68.16
2022-08-22T02:46:20.723Z,68.46
2022-08-22T02:49:21.709Z,68.42
2022-08-22T02:52:09.810Z,68.33
2022-08-22T02:54:48.494Z,68.13
2022-08-22T02:57:36.242Z,68.06
2022-08-22T03:00:30.910Z,68.18
2022-08-22T03:03:07.190Z,68.39
2022-08-22T03:05:37.057Z,68.13
2022-08-22T03:08:09.337Z,67.82
2022-08-22T03:10:54.726Z,67.77
2022-08-22T03:13:57.071Z,68.00
2022-08-22T03:16:36.744Z,68.35
2022-08-22T03:19:18.364Z,68.39
2022-08-22T03:22:07.796Z,68.37
2022-08-22T03:25:01.872Z,68.60
2022-08-22T03:27:46.216Z,68.90
2022-08-22T03:30:22.048Z,69.12
2022-08-22T03:33:15.171Z,68.94
2022-08-22T03:35:42.447Z,69.16
2022-08-22T03:38:33.735Z,68.98
2022-08-22T03:41:12.734Z,68.88
2022-08-22T03:44:12.293Z,68.96
2022-08-22T03:46:55.791Z,69.21
2022-08-22T03:49:41.655Z,69.30
2022-08-22T03:52:57.806Z,68.91
2022-08-22T03:55:49.489Z,69.05
2022-08-22T03:58:37.302Z,69.05
2022-08-22T04:01:14.003Z,69.19
2022-08-22T04:04:02.751Z,68.95
2022-08-22T04:07:05.439Z,68.91
2022-08-22T04:09:59.953Z,69.44
2022-08-22T04:13:01.627Z,69.36
2022-08-22T04:15:50.126Z,69.39
2022-08-22T04:18:45.693Z,69.00
2022-08-22T04:21:46.080Z,69.20
2022-08-22T04:24:31.655Z,69.30
2022-08-22T04:27:17.570Z,69.29
2022-08-22T04:29:56.184Z,69.41
2022-08-22T04:32:30.649Z,69.47
2022-08-22T04:35:18.099Z,69.46
2022-08-22T04:38:04.706Z,69.46
2022-08-22T04:40:43.219Z,69.52
2022-08-22T04:43:16.534Z,69.30
2022-08-22T04:46:33.598Z,69.23
2022-08-22T04:49:16.033Z,69.61
2022-08-22T04:51:55.191Z,69.71
2022-08-22T04:55:01.011Z,69.54
2022-08-22T04:57:55.331Z,69.58
2022-08-22T05:00:23.690Z,69.67
2022-08-22T05:02:58.770Z,69.37
2022-08-22T05:05:39.543Z,69.27
2022-08-22T05:08:11.730Z,69.07
2022-08-22T05:10:46.689Z,69.34
2022-08-22T05:13:32.407Z,69.34
2022-08-22T05:16:06.092Z,69.42
2022-08-22T05:18:40.276Z,69.46
2022-08-22T05:21:11.128Z,69.28
2022-08-22T05:23:51.461Z,69.25
2022-08-22T05:26:21.695Z,69.12
2022-08-22T05:29:01.136Z,69.29
2022-08-22T05:31:34.954Z,69.59
2022-08-22T05:34:08.243Z,69.47
2022-08-22T05:37:08.091Z,69.56
2022-08-22T05:39:42.932Z,69.74
2022-08-22T05:42:27.817Z,69.75
2022-08-22T05:44:59.501Z,69.66
2022-08-22T05:47:41.476Z,69.39
2022-08-22T05:50:35.313Z,69.89
2022-08-22T05:53:07.669Z,69.98
2022-08-22T05:55:56.420Z,69.75
2022-08-22T05:58:47.000Z,69.72
2022-08-22T06:01:28.903Z,69.99
2022-08-22T06:04:18.901Z,69.69
2022-08-22T06:07:20.056Z,69.48
2022-08-22T06:09:47.347Z,69.82
2022-08-22T06:12:43.172Z,69.49
2022-08-22T06:15:22.714Z,69.60
2022-08-22T06:18:06.821Z,69.31
2022-08-22T06:20:50.354Z,69.47
2022-08-22T06:23:47.459Z,69.11
2022-08-22T06:26:20.722Z,68.99
2022-08-22T06:28:57.842Z,69.06
2022-08-22T06:31:51.895Z,69.24
2022-08-22T06:34:27.506Z,69.53
2022-08-22T06:37:01.932Z,68.98
2022-08-22T06:39:35.678Z,69.22
2022-08-22T06:42:23.435Z,69.22
2022-08-22T06:45:06.568Z,69.23
2022-08-22T06:47:41.833Z,69.57
2022-08-22T06:50:17.005Z,69.60
2022-08-22T06:53:17.074Z,69.54
2022-08-22T06:55:49.979Z,69.54
2022-08-22T06:58:36.524Z,69.57
2022-08-22T07:01:12.243Z,69.45
2022-08-22T07:03:50.791Z,69.15
2022-08-22T07:06:28.754Z,69.08
2022-08-22T07:08:56.710Z,69.20
2022-08-22T07:11:37.096Z,69.07
2022-08-22T07:14:15.070Z,68.63
2022-08-22T07:17:04.634Z,68.76
2022-08-22T07:19:41.799Z,68.68
2022-08-22T07:22:30.747Z,68.32
2022-08-22T07:25:11.236Z,68.19
2022-08-22T07:28:36.651Z,68.19
2022-08-22T07:31:25.884Z,68.29
2022-08-22T07:34:17.989Z,68.24
2022-08-22T07:37:01.792Z,68.49
2022-08-22T07:39:39.420Z,67.85
2022-08-22T07:42:22.591Z,67.39
2022-08-22T07:45:15.901Z,67.27
2022-08-22T07:48:17.201Z,67.05
2022-08-22T07:50:57.657Z,67.13
2022-08-22T07:53:42.740Z,66.58
2022-08-22T07:56:24.333Z,66.74
2022-08-22T07:58:59.058Z,66.56
2022-08-22T08:01:27.231Z,66.31
2022-08-22T08:04:02.165Z,66.31
2022-08-22T08:06:32.355Z,66.13
2022-08-22T10:23:36.051Z,61.56
2022-08-22T10:26:42.819Z,61.02
2022-08-22T10:29:24.571Z,60.98
2022-08-22T10:32:06.012Z,59.76
2022-08-22T10:34:45.286Z,60.03
2022-08-22T10:37:30.959Z,59.67
2022-08-22T10:40:13.406Z,59.75
2022-08-22T10:42:59.658Z,59.60
2022-08-22T10:45:39.317Z,59.44
2022-08-22T10:48:08.788Z,59.57
2022-08-22T10:50:45.240Z,59.74
2022-08-22T10:53:37.208Z,59.97
2022-08-22T10:56:21.308Z,59.75
2022-08-22T10:59:13.168Z,59.92
2022-08-22T11:01:56.452Z,59.16
2022-08-22T11:04:31.740Z,59.21
2022-08-22T11:07:11.185Z,59.54
2022-08-22T11:09:43.098Z,59.48
2022-08-22T11:12:34.832Z,59.17
2022-08-22T11:15:28.502Z,58.75
2022-08-22T11:18:21.078Z,58.86
2022-08-22T11:21:08.466Z,58.95
2022-08-22T11:24:00.687Z,59.69
2022-08-22T11:26:47.227Z,59.03
2022-08-22T11:29:34.504Z,58.77
2022-08-22T11:32:23.364Z,58.48
2022-08-22T11:35:00.396Z,58.19
2022-08-22T11:37:42.773Z,57.97
2022-08-22T11:40:19.556Z,57.24
2022-08-22T11:43:27.735Z,57.62
2022-08-22T11:46:20.872Z,57.11
2022-08-22T11:49:25.767Z,56.70
2022-08-22T11:52:07.097Z,55.98
2022-08-22T11:54:51.792Z,56.27
2022-08-22T11:57:54.738Z,56.31
2022-08-22T12:00:28.674Z,55.64
2022-08-22T12:03:17.569Z,56.08
2022-08-22T12:05:51.887Z,55.88
2022-08-22T12:08:49.748Z,55.65
2022-08-22T12:11:37.386Z,55.49
2022-08-22T12:14:26.868Z,54.68
2022-08-22T12:17:55.365Z,53.45
2022-08-22T12:20:46.645Z,53.41
2022-08-22T12:23:43.687Z,53.28
2022-08-22T12:26:51.782Z,53.00
2022-08-22T12:29:40.051Z,53.89
2022-08-22T12:32:49.959Z,54.11
2022-08-22T12:35:40.376Z,52.11
2022-08-22T12:38:28.350Z,52.76
2022-08-22T12:41:28.303Z,51.71
2022-08-22T12:44:17.056Z,52.48
2022-08-22T12:47:05.762Z,52.80
2022-08-22T12:49:58.615Z,50.81
2022-08-22T12:52:58.490Z,51.28
2022-08-22T12:55:33.730Z,51.01
2022-08-22T12:58:09.597Z,50.99
2022-08-22T13:00:49.498Z,50.11
2022-08-22T13:03:35.492Z,49.87
2022-08-22T13:06:37.958Z,50.13
2022-08-22T13:09:28.438Z,51.04
2022-08-22T13:12:02.443Z,50.56
2022-08-22T13:14:34.696Z,50.42
2022-08-22T13:17:15.167Z,50.39
2022-08-22T13:20:02.216Z,49.68
2022-08-22T13:22:33.820Z,50.21
2022-08-22T13:25:27.410Z,50.11
2022-08-22T13:27:59.468Z,49.72
2022-08-22T13:30:44.170Z,50.19
2022-08-22T13:33:26.176Z,49.50
2022-08-22T13:36:38.009Z,49.13
2022-08-22T13:39:25.653Z,48.62
2022-08-22T13:42:01.533Z,49.29
2022-08-22T13:44:40.173Z,50.47
2022-08-22T13:47:15.038Z,49.88
2022-08-22T13:49:47.219Z,50.08
2022-08-22T13:52:52.604Z,49.04
2022-08-22T13:55:50.184Z,49.98
2022-08-22T13:58:39.788Z,49.29
2022-08-22T14:01:28.526Z,49.87
2022-08-22T14:04:28.849Z,49.62
2022-08-22T14:07:04.727Z,49.29
2022-08-22T14:09:45.244Z,50.02
2022-08-22T14:12:50.307Z,49.88
2022-08-22T14:15:32.218Z,50.34
2022-08-22T14:18:18.565Z,50.15
2022-08-22T14:20:48.545Z,49.98
2022-08-22T14:23:29.774Z,49.63
2022-08-22T14:26:01.638Z,49.57
2022-08-22T14:28:33.838Z,50.02
2022-08-22T14:31:09.047Z,49.62
2022-08-22T14:33:40.930Z,49.41
2022-08-22T14:36:20.122Z,49.67
2022-08-22T14:39:07.287Z,49.81
2022-08-22T14:41:55.552Z,49.85
2022-08-22T14:44:39.140Z,49.56
2022-08-22T14:47:54.371Z,49.60
2022-08-22T14:50:49.671Z,49.54
2022-08-22T14:53:19.969Z,49.60
2022-08-22T14:56:27.991Z,49.97
2022-08-22T14:59:09.221Z,49.55
2022-08-22T15:02:02.071Z,49.56
2022-08-22T15:04:43.286Z,49.74
2022-08-22T15:07:29.183Z,49.96
2022-08-22T15:10:23.924Z,49.72
2022-08-22T15:12:58.950Z,49.62
2022-08-22T15:15:52.796Z,49.94
2022-08-22T15:18:23.814Z,49.75
2022-08-22T15:21:08.643Z,49.53
2022-08-22T15:23:45.118Z,49.72
2022-08-22T15:26:25.805Z,49.71
2022-08-22T15:29:18.592Z,49.82
2022-08-22T15:31:52.024Z,49.70
2022-08-22T15:34:35.936Z,50.21
2022-08-22T15:37:18.389Z,50.24
2022-08-22T15:40:13.179Z,49.97
2022-08-22T15:42:51.497Z,50.48
2022-08-22T15:45:38.142Z,50.29
2022-08-22T15:48:10.788Z,50.40
2022-08-22T15:50:55.914Z,50.62
2022-08-22T15:53:45.633Z,50.64
2022-08-22T15:56:26.179Z,50.84
2022-08-22T15:59:33.916Z,50.88
2022-08-22T16:02:47.713Z,50.86
2022-08-22T16:05:37.823Z,51.17
2022-08-22T16:08:09.813Z,50.86
2022-08-22T16:10:50.459Z,50.89
2022-08-22T16:13:34.821Z,51.11
2022-08-22T16:17:04.072Z,50.94
2022-08-22T16:19:33.963Z,51.03
2022-08-22T16:22:00.660Z,51.17
2022-08-22T16:24:33.977Z,51.28
2022-08-22T16:27:22.861Z,51.73
2022-08-22T16:30:13.312Z,52.57
2022-08-22T16:32:51.793Z,52.60
2022-08-22T16:35:57.205Z,53.46
2022-08-22T16:38:36.850Z,53.89
2022-08-22T16:41:05.680Z,55.27
2022-08-22T16:43:32.970Z,54.66
2022-08-22T16:46:01.911Z,55.19
2022-08-22T16:48:40.033Z,55.85
2022-08-22T16:51:18.897Z,56.04
2022-08-22T16:54:06.811Z,55.76
2022-08-22T16:56:50.776Z,54.99
2022-08-22T16:59:40.150Z,55.08
2022-08-22T17:02:24.800Z,56.14
2022-08-22T17:05:05.441Z,57.22
2022-08-22T17:08:00.987Z,57.44
2022-08-22T17:10:49.065Z,56.81
2022-08-22T17:13:54.451Z,57.94
2022-08-22T17:16:36.944Z,56.46
2022-08-22T17:19:20.843Z,56.30
2022-08-22T17:21:59.238Z,56.43
2022-08-22T17:24:45.783Z,56.31
2022-08-22T17:27:15.508Z,55.90
2022-08-22T17:30:04.017Z,55.75
2022-08-22T17:32:42.029Z,56.19
2022-08-22T17:35:15.128Z,56.44
2022-08-22T17:38:01.872Z,56.75
2022-08-22T17:40:44.801Z,56.25
2022-08-22T17:43:48.423Z,56.92
2022-08-22T17:46:28.391Z,56.38
2022-08-22T17:49:11.689Z,57.25
2022-08-22T17:52:07.379Z,56.97
2022-08-22T17:55:16.364Z,57.14
2022-08-22T17:58:01.345Z,56.90
2022-08-22T18:00:36.805Z,56.43
2022-08-22T18:03:15.804Z,55.78
2022-08-22T18:06:10.309Z,54.54
2022-08-22T18:11:40.396Z,53.88
2022-08-22T18:14:22.427Z,53.58
2022-08-22T18:16:52.938Z,53.12
2022-08-22T18:19:52.337Z,53.87
2022-08-22T18:22:37.654Z,52.58
2022-08-22T18:25:11.396Z,52.24
2022-08-22T18:28:10.103Z,51.23
2022-08-22T18:31:02.605Z,51.36
2022-08-22T18:33:36.026Z,51.27
2022-08-22T18:36:11.624Z,51.89
2022-08-22T18:38:49.837Z,51.98
2022-08-22T18:41:23.669Z,52.55
2022-08-22T18:43:54.437Z,53.04
2022-08-22T18:46:54.993Z,53.34
2022-08-22T18:49:24.831Z,54.30
2022-08-22T18:52:20.881Z,54.95
2022-08-22T18:55:38.500Z,55.07
2022-08-22T18:58:20.648Z,55.43
2022-08-22T19:01:00.172Z,55.32
2022-08-22T19:04:00.650Z,55.63
2022-08-22T19:06:48.692Z,56.53
2022-08-22T19:09:55.014Z,56.78
2022-08-22T19:12:31.987Z,57.24
2022-08-22T19:15:55.512Z,57.28
2022-08-22T19:18:35.578Z,56.43
2022-08-22T19:21:57.674Z,56.17
2022-08-22T19:24:27.581Z,57.14
2022-08-22T19:27:19.762Z,58.19
2022-08-22T19:29:46.748Z,57.55
2022-08-22T19:52:12.398Z,62.06
2022-08-22T20:03:12.720Z,63.44
2022-08-22T20:06:13.788Z,63.03
2022-08-22T20:09:08.563Z,63.05
2022-08-22T20:11:43.281Z,63.27
2022-08-22T20:14:31.683Z,62.91
2022-08-22T20:17:26.679Z,63.39
2022-08-22T20:20:27.902Z,63.26
2022-08-22T20:23:23.266Z,63.60
2022-08-22T20:25:53.408Z,63.93
2022-08-22T20:28:44.260Z,63.73
2022-08-22T20:31:21.706Z,63.78
2022-08-22T20:33:53.789Z,63.88
2022-08-22T20:36:28.863Z,64.46
2022-08-22T20:39:06.422Z,64.65
2022-08-22T20:41:50.715Z,64.91
2022-08-22T20:44:33.424Z,64.98
2022-08-22T20:47:08.215Z,64.72
2022-08-22T20:49:54.165Z,64.86
2022-08-22T20:52:24.127Z,64.68
2022-08-22T20:55:27.152Z,64.64
2022-08-22T20:58:23.369Z,65.08
2022-08-22T21:00:54.863Z,65.07
2022-08-22T21:03:40.405Z,64.92
2022-08-22T21:06:17.302Z,65.39
2022-08-22T21:08:46.856Z,65.56
2022-08-22T21:38:17.646Z,65.69
2022-08-22T21:40:44.426Z,65.33
2022-08-22T21:47:43.660Z,65.29
2022-08-22T21:51:06.606Z,65.30
2022-08-22T21:57:35.700Z,66.12
2022-08-22T22:00:02.781Z,65.87
2022-08-22T22:02:37.463Z,65.95
2022-08-22T22:05:15.311Z,65.99
2022-08-22T22:07:47.163Z,65.73
2022-08-22T22:10:17.220Z,65.64
2022-08-22T22:12:46.388Z,65.83
2022-08-22T22:15:20.978Z,65.70
2022-08-22T22:17:47.860Z,65.97
2022-08-22T22:20:16.362Z,65.75
2022-08-22T22:22:46.589Z,65.96
2022-08-22T22:25:40.946Z,65.83
2022-08-22T22:28:16.657Z,66.00
2022-08-22T22:30:44.922Z,66.21
2022-08-22T22:33:12.084Z,66.12
2022-08-22T22:35:41.100Z,66.02
2022-08-22T22:38:08.690Z,65.99
2022-08-22T22:40:35.537Z,66.28
2022-08-22T22:43:02.696Z,66.22
2022-08-22T22:45:29.935Z,66.19
2022-08-22T22:47:57.250Z,66.05
2022-08-22T22:50:24.677Z,66.07
2022-08-22T22:52:51.552Z,66.07
2022-08-22T22:55:23.983Z,66.19
2022-08-22T22:57:59.034Z,66.36
2022-08-22T23:00:30.913Z,66.39
2022-08-22T23:03:03.895Z,66.30
2022-08-22T23:05:32.530Z,66.42
2022-08-22T23:07:59.621Z,66.40
2022-08-22T23:10:27.912Z,66.63
2022-08-22T23:13:00.157Z,66.76
2022-08-22T23:15:27.663Z,66.71
2022-08-22T23:17:54.858Z,66.46
2022-08-22T23:20:22.099Z,66.89
2022-08-22T23:22:49.122Z,66.94
2022-08-22T23:25:16.196Z,66.96
2022-08-22T23:27:43.624Z,67.06
2022-08-22T23:30:11.539Z,67.24
2022-08-22T23:32:39.036Z,66.68
2022-08-22T23:35:08.070Z,66.55
2022-08-22T23:37:34.918Z,67.04
2022-08-22T23:40:02.681Z,66.99
2022-08-22T23:42:29.685Z,66.73
2022-08-22T23:44:57.162Z,66.94
2022-08-22T23:51:17.587Z,67.25
2022-08-22T23:53:50.086Z,66.89
2022-08-22T23:56:27.091Z,66.62
2022-08-22T23:58:54.078Z,66.69
